createdAt,value
2023-05-16T00:00:38.120Z,16.10
2023-05-16T00:03:06.461Z,16.10
2023-05-16T00:05:33.549Z,16.00
2023-05-16T00:08:00.246Z,16.00
2023-05-16T00:10:27.076Z,16.00
2023-05-16T00:12:53.999Z,15.90
2023-05-16T00:15:20.803Z,15.90
2023-05-16T00:17:47.791Z,15.90
2023-05-16T00:20:17.463Z,15.90
2023-05-16T00:22:44.946Z,15.90
2023-05-16T00:25:11.639Z,15.80
2023-05-16T00:27:38.462Z,15.90
2023-05-16T00:30:06.687Z,15.80
2023-05-16T00:32:33.581Z,15.90
2023-05-16T00:35:00.372Z,15.80
2023-05-16T00:37:27.521Z,15.80
2023-05-16T00:39:54.562Z,15.80
2023-05-16T00:42:21.693Z,15.80
2023-05-16T00:44:48.848Z,15.80
2023-05-16T00:47:15.553Z,15.70
2023-05-16T00:49:42.816Z,15.70
2023-05-16T00:52:09.603Z,15.70
2023-05-16T00:54:36.879Z,15.60
2023-05-16T00:57:04.217Z,15.60
2023-05-16T00:59:30.942Z,15.60
2023-05-16T01:01:57.996Z,15.60
2023-05-16T01:04:25.306Z,15.50
2023-05-16T01:06:52.145Z,15.50
2023-05-16T01:09:19.548Z,15.50
2023-05-16T01:11:56.624Z,15.50
2023-05-16T01:14:32.278Z,15.50
2023-05-16T01:17:03.601Z,15.50
2023-05-16T01:19:52.548Z,15.40
2023-05-16T01:23:02.189Z,15.50
2023-05-16T01:25:48.363Z,15.40
2023-05-16T01:28:18.174Z,15.40
2023-05-16T01:30:45.146Z,15.40
2023-05-16T01:33:12.544Z,15.40
2023-05-16T01:36:08.956Z,15.30
2023-05-16T01:39:17.291Z,15.30
2023-05-16T01:41:51.787Z,15.30
2023-05-16T01:44:29.073Z,15.20
2023-05-16T01:46:59.849Z,15.20
2023-05-16T01:49:40.981Z,15.10
2023-05-16T01:52:16.294Z,15.00
2023-05-16T01:54:48.441Z,15.10
2023-05-16T01:57:16.998Z,15.00
2023-05-16T01:59:45.696Z,15.00
2023-05-16T02:02:12.340Z,15.00
2023-05-16T02:04:39.282Z,15.00
2023-05-16T02:07:06.159Z,15.00
2023-05-16T02:09:32.975Z,15.00
2023-05-16T02:12:00.563Z,15.00
2023-05-16T02:14:27.350Z,14.90
2023-05-16T02:16:54.936Z,14.90
2023-05-16T02:19:21.811Z,14.90
2023-05-16T02:21:48.564Z,14.90
2023-05-16T02:24:15.668Z,14.80
2023-05-16T02:26:42.482Z,14.80
2023-05-16T02:29:10.004Z,14.80
2023-05-16T02:31:36.741Z,14.80
2023-05-16T02:34:03.654Z,14.80
2023-05-16T02:36:31.238Z,14.70
2023-05-16T02:38:57.988Z,14.70
2023-05-16T02:41:25.532Z,14.80
2023-05-16T02:43:52.184Z,14.70
2023-05-16T02:46:28.038Z,14.80
2023-05-16T02:48:55.020Z,14.80
2023-05-16T02:51:23.192Z,14.80
2023-05-16T02:53:50.569Z,14.80
2023-05-16T02:56:17.837Z,14.80
2023-05-16T02:58:48.376Z,14.80
2023-05-16T03:01:16.236Z,14.80
2023-05-16T03:03:43.267Z,14.80
2023-05-16T03:06:10.208Z,14.80
2023-05-16T03:08:37.301Z,14.80
2023-05-16T03:11:04.255Z,14.80
2023-05-16T03:13:31.052Z,14.70
2023-05-16T03:15:57.858Z,14.80
2023-05-16T03:18:24.540Z,14.80
2023-05-16T03:20:53.146Z,14.80
2023-05-16T03:23:22.938Z,14.70
2023-05-16T03:25:49.796Z,14.80
2023-05-16T03:28:18.054Z,14.80
2023-05-16T03:30:44.880Z,14.80
2023-05-16T03:33:11.726Z,14.90
2023-05-16T03:35:38.699Z,15.00
2023-05-16T03:38:05.566Z,15.00
2023-05-16T03:40:32.585Z,15.00
2023-05-16T03:42:59.392Z,15.00
2023-05-16T03:45:26.423Z,15.10
2023-05-16T03:47:53.894Z,15.10
2023-05-16T03:50:20.725Z,15.20
2023-05-16T03:52:47.508Z,15.10
2023-05-16T03:55:15.455Z,15.20
2023-05-16T03:57:42.918Z,15.20
2023-05-16T04:00:11.366Z,15.20
2023-05-16T04:02:40.772Z,15.20
2023-05-16T04:05:09.446Z,15.20
2023-05-16T04:07:37.243Z,15.20
2023-05-16T04:10:05.044Z,15.30
2023-05-16T04:12:32.182Z,15.30
2023-05-16T04:14:59.204Z,15.40
2023-05-16T04:17:26.056Z,15.40
2023-05-16T04:19:52.897Z,15.50
2023-05-16T04:22:22.069Z,15.50
2023-05-16T04:24:49.116Z,15.50
2023-05-16T04:27:15.864Z,15.60
2023-05-16T04:29:42.629Z,15.60
2023-05-16T04:32:09.653Z,15.60
2023-05-16T04:34:39.779Z,15.50
2023-05-16T04:37:07.510Z,15.60
2023-05-16T04:39:35.843Z,15.50
2023-05-16T04:42:04.616Z,15.50
2023-05-16T04:44:31.907Z,15.50
2023-05-16T04:46:58.716Z,15.40
2023-05-16T04:49:25.621Z,15.40
2023-05-16T04:51:52.247Z,15.40
2023-05-16T04:54:18.914Z,15.50
2023-05-16T04:56:45.720Z,15.40
2023-05-16T04:59:12.605Z,15.40
2023-05-16T05:01:39.740Z,15.40
2023-05-16T05:04:06.597Z,15.40
2023-05-16T05:06:33.421Z,15.40
2023-05-16T05:09:00.164Z,15.30
2023-05-16T05:11:27.423Z,15.20
2023-05-16T05:13:54.285Z,15.20
2023-05-16T05:16:21.061Z,15.20
2023-05-16T05:18:48.077Z,15.20
2023-05-16T05:21:15.010Z,15.10
2023-05-16T05:23:41.745Z,15.10
2023-05-16T05:26:08.671Z,15.20
2023-05-16T05:28:43.770Z,15.10
2023-05-16T05:31:15.062Z,15.10
2023-05-16T05:33:42.551Z,15.00
2023-05-16T05:36:09.669Z,14.90
2023-05-16T05:38:36.435Z,14.80
2023-05-16T05:41:03.154Z,14.80
2023-05-16T05:43:29.869Z,14.70
2023-05-16T05:45:56.634Z,14.70
2023-05-16T05:48:23.499Z,14.60
2023-05-16T05:50:50.252Z,14.60
2023-05-16T05:53:16.905Z,14.60
2023-05-16T05:55:43.608Z,14.50
2023-05-16T05:58:10.450Z,14.50
2023-05-16T06:00:37.157Z,14.50
2023-05-16T06:03:04.323Z,14.40
2023-05-16T06:05:31.401Z,14.40
2023-05-16T06:07:58.265Z,14.40
2023-05-16T06:10:25.266Z,14.40
2023-05-16T06:12:52.237Z,14.40
2023-05-16T06:15:19.008Z,14.40
2023-05-16T06:17:45.751Z,14.30
2023-05-16T06:20:13.151Z,14.30
2023-05-16T06:22:40.241Z,14.30
2023-05-16T06:25:07.365Z,14.20
2023-05-16T06:27:34.140Z,14.20
2023-05-16T06:30:00.773Z,14.10
2023-05-16T06:32:27.535Z,14.10
2023-05-16T06:34:54.284Z,14.10
2023-05-16T06:37:21.181Z,14.00
2023-05-16T06:39:47.920Z,14.00
2023-05-16T06:42:15.173Z,13.90
2023-05-16T06:44:42.036Z,13.90
2023-05-16T06:47:08.831Z,13.80
2023-05-16T06:49:36.200Z,13.80
2023-05-16T06:52:03.204Z,13.80
2023-05-16T06:54:29.948Z,13.80
2023-05-16T06:56:56.737Z,13.70
2023-05-16T06:59:24.837Z,13.70
2023-05-16T07:01:52.104Z,13.70
2023-05-16T07:04:18.920Z,13.70
2023-05-16T07:06:45.722Z,13.80
2023-05-16T07:09:12.554Z,13.70
2023-05-16T07:11:39.304Z,13.80
2023-05-16T07:14:05.955Z,13.80
2023-05-16T07:16:33.314Z,13.70
2023-05-16T07:19:00.117Z,13.70
2023-05-16T07:21:26.958Z,13.70
2023-05-16T07:23:53.824Z,13.70
2023-05-16T07:26:23.135Z,13.70
2023-05-16T07:28:51.297Z,13.70
2023-05-16T07:31:18.577Z,13.60
2023-05-16T07:33:49.267Z,13.60
2023-05-16T07:36:17.594Z,13.50
2023-05-16T07:38:45.189Z,13.50
2023-05-16T07:41:12.146Z,13.50
2023-05-16T07:43:38.874Z,13.50
2023-05-16T07:46:06.066Z,13.50
2023-05-16T07:48:32.963Z,13.50
2023-05-16T07:50:59.688Z,13.50
2023-05-16T07:53:26.500Z,13.60
2023-05-16T07:55:53.567Z,13.50
2023-05-16T07:58:20.502Z,13.50
2023-05-16T08:00:47.466Z,13.50
2023-05-16T08:03:14.444Z,13.40
2023-05-16T08:05:41.419Z,13.50
2023-05-16T08:08:08.210Z,13.50
2023-05-16T08:10:35.073Z,13.50
2023-05-16T08:13:01.932Z,13.50
2023-05-16T08:15:29.066Z,13.50
2023-05-16T08:17:59.765Z,13.50
2023-05-16T08:20:26.762Z,13.50
2023-05-16T08:22:54.113Z,13.50
2023-05-16T08:25:21.174Z,13.60
2023-05-16T08:27:50.820Z,13.60
2023-05-16T08:30:17.637Z,13.60
2023-05-16T08:32:44.584Z,13.60
2023-05-16T08:35:11.546Z,13.60
2023-05-16T08:37:38.354Z,13.60
2023-05-16T08:40:08.317Z,13.60
2023-05-16T08:42:35.512Z,13.60
2023-05-16T08:45:02.855Z,13.70
2023-05-16T08:47:32.116Z,13.70
2023-05-16T08:50:01.334Z,13.80
2023-05-16T08:52:29.925Z,13.80
2023-05-16T08:55:10.009Z,13.80
2023-05-16T08:57:38.420Z,13.90
2023-05-16T09:00:12.211Z,13.90
2023-05-16T09:02:44.239Z,13.90
2023-05-16T09:05:16.023Z,13.90
2023-05-16T09:07:43.583Z,14.00
2023-05-16T09:10:11.192Z,14.00
2023-05-16T09:12:39.260Z,14.00
2023-05-16T09:15:07.889Z,14.00
2023-05-16T09:17:45.000Z,14.00
2023-05-16T09:20:14.759Z,14.00
2023-05-16T09:22:54.067Z,14.00
2023-05-16T09:25:30.400Z,14.00
2023-05-16T09:28:00.262Z,14.00
2023-05-16T09:30:32.658Z,14.00
2023-05-16T09:32:59.967Z,13.90
2023-05-16T09:37:56.981Z,14.00
2023-05-16T09:40:24.285Z,14.00
2023-05-16T09:43:05.538Z,14.10
2023-05-16T09:45:34.126Z,14.10
2023-05-16T09:48:13.327Z,14.10
2023-05-16T09:50:40.920Z,14.10
2023-05-16T09:53:09.224Z,14.00
2023-05-16T09:55:36.155Z,14.10
2023-05-16T09:58:03.049Z,14.10
2023-05-16T10:00:32.411Z,14.20
2023-05-16T10:03:04.244Z,14.20
2023-05-16T10:05:32.941Z,14.30
2023-05-16T10:08:02.033Z,14.40
2023-05-16T10:10:29.957Z,14.40
2023-05-16T10:13:00.271Z,14.40
2023-05-16T10:15:29.564Z,14.40
2023-05-16T10:18:00.122Z,14.40
2023-05-16T10:20:27.663Z,14.40
2023-05-16T10:22:56.574Z,14.40
2023-05-16T10:25:34.124Z,14.50
2023-05-16T10:28:02.151Z,14.50
2023-05-16T10:30:29.305Z,14.50
2023-05-16T10:32:57.734Z,14.60
2023-05-16T10:35:24.881Z,14.60
2023-05-16T10:37:52.579Z,14.70
2023-05-16T10:40:20.523Z,14.70
2023-05-16T10:42:57.788Z,14.70
2023-05-16T10:45:25.305Z,14.80
2023-05-16T10:47:57.198Z,14.90
2023-05-16T10:50:44.125Z,14.90
2023-05-16T10:53:22.669Z,14.90
2023-05-16T10:56:01.642Z,14.90
2023-05-16T10:58:35.334Z,14.90
2023-05-16T11:01:21.221Z,14.90
2023-05-16T11:03:57.533Z,14.90
2023-05-16T11:06:25.859Z,14.90
2023-05-16T11:09:10.630Z,15.00
2023-05-16T11:11:46.484Z,15.10
2023-05-16T11:14:23.323Z,15.20
2023-05-16T11:17:23.412Z,15.30
2023-05-16T11:19:59.451Z,15.40
2023-05-16T11:22:30.266Z,15.40
2023-05-16T11:25:05.784Z,15.50
2023-05-16T11:27:33.552Z,15.50
2023-05-16T11:30:06.466Z,15.50
2023-05-16T11:32:41.109Z,15.50
2023-05-16T11:35:11.052Z,15.60
2023-05-16T11:37:39.771Z,15.60
2023-05-16T11:40:09.609Z,15.70
2023-05-16T11:42:39.634Z,15.70
2023-05-16T11:45:14.848Z,15.80
2023-05-16T11:47:43.000Z,16.00
2023-05-16T11:50:15.423Z,16.20
2023-05-16T11:52:53.731Z,16.30
2023-05-16T11:55:40.265Z,16.50
2023-05-16T11:58:08.362Z,16.60
2023-05-16T12:00:35.375Z,16.80
2023-05-16T12:03:05.048Z,16.90
2023-05-16T12:05:34.272Z,16.90
2023-05-16T12:08:02.901Z,17.00
2023-05-16T12:10:35.832Z,17.00
2023-05-16T12:13:03.693Z,17.10
2023-05-16T12:15:31.130Z,17.20
2023-05-16T12:17:58.722Z,17.30
2023-05-16T12:20:26.945Z,17.30
2023-05-16T12:22:53.888Z,17.30
2023-05-16T12:25:36.125Z,17.40
2023-05-16T12:28:07.824Z,17.40
2023-05-16T12:30:34.602Z,17.40
2023-05-16T12:33:12.950Z,17.50
2023-05-16T12:35:44.122Z,17.50
2023-05-16T12:38:13.304Z,17.50
2023-05-16T12:40:42.482Z,17.40
2023-05-16T12:43:16.840Z,17.40
2023-05-16T12:45:53.341Z,17.40
2023-05-16T12:48:20.686Z,17.30
2023-05-16T12:50:48.883Z,17.30
2023-05-16T12:53:18.019Z,17.30
2023-05-16T12:55:45.279Z,17.30
2023-05-16T12:58:12.760Z,17.30
2023-05-16T13:00:39.888Z,17.30
2023-05-16T13:03:07.952Z,17.30
2023-05-16T13:05:36.363Z,17.30
2023-05-16T13:08:03.794Z,17.30
2023-05-16T13:10:30.805Z,17.30
2023-05-16T13:13:00.256Z,17.30
2023-05-16T13:15:27.826Z,17.30
2023-05-16T13:17:55.033Z,17.30
2023-05-16T13:20:21.942Z,17.20
2023-05-16T13:22:48.933Z,17.20
2023-05-16T13:25:16.225Z,17.10
2023-05-16T13:27:43.058Z,17.00
2023-05-16T13:30:10.092Z,17.00
2023-05-16T13:32:36.947Z,16.90
2023-05-16T13:35:04.296Z,16.90
2023-05-16T13:37:31.437Z,16.80
2023-05-16T13:39:58.284Z,16.80
2023-05-16T13:42:25.138Z,16.80
2023-05-16T13:44:52.167Z,16.80
2023-05-16T13:47:19.002Z,16.80
2023-05-16T13:49:46.197Z,16.90
2023-05-16T13:52:13.097Z,17.00
2023-05-16T13:54:41.721Z,17.00
2023-05-16T13:57:08.732Z,17.10
2023-05-16T13:59:59.211Z,17.10
2023-05-16T14:02:22.224Z,17.10
2023-05-16T14:04:50.076Z,17.10
2023-05-16T14:07:17.042Z,17.20
2023-05-16T14:09:44.678Z,17.20
2023-05-16T14:12:11.564Z,17.10
2023-05-16T14:14:41.490Z,17.10
2023-05-16T14:17:08.231Z,17.00
2023-05-16T14:19:35.078Z,17.00
2023-05-16T14:22:01.989Z,16.90
2023-05-16T14:24:28.787Z,16.90
2023-05-16T14:26:55.573Z,16.90
2023-05-16T14:29:22.732Z,16.80
2023-05-16T14:31:49.967Z,16.80
2023-05-16T14:34:16.721Z,16.80
2023-05-16T14:36:43.819Z,16.70
2023-05-16T14:39:10.678Z,16.70
2023-05-16T14:41:37.521Z,16.60
2023-05-16T14:44:04.456Z,16.70
2023-05-16T14:46:31.190Z,16.60
2023-05-16T14:48:58.103Z,16.50
2023-05-16T14:51:24.918Z,16.50
2023-05-16T14:53:51.860Z,16.50
2023-05-16T14:56:18.767Z,16.30
2023-05-16T14:58:45.692Z,16.30
2023-05-16T15:01:12.606Z,16.20
2023-05-16T15:06:09.376Z,16.10
2023-05-16T15:08:37.197Z,16.10
2023-05-16T15:11:04.408Z,16.00
2023-05-16T15:13:31.326Z,16.00
2023-05-16T15:15:58.294Z,16.00
2023-05-16T15:18:25.070Z,15.90
2023-05-16T15:20:53.176Z,15.90
2023-05-16T15:23:20.043Z,15.90
2023-05-16T15:25:46.746Z,15.90
2023-05-16T15:28:13.571Z,15.90
2023-05-16T15:30:40.555Z,15.90
2023-05-16T15:33:07.372Z,15.90
2023-05-16T15:35:34.130Z,15.90
2023-05-16T15:38:01.085Z,15.90
2023-05-16T15:40:27.999Z,15.90
2023-05-16T15:42:54.765Z,16.00
2023-05-16T15:45:21.608Z,16.00
2023-05-16T15:47:48.364Z,16.10
2023-05-16T15:50:15.644Z,16.20
2023-05-16T15:52:42.428Z,16.20
2023-05-16T15:55:11.364Z,16.30
2023-05-16T15:57:38.168Z,16.30
2023-05-16T16:00:05.540Z,16.30
2023-05-16T16:02:32.460Z,16.30
2023-05-16T16:04:59.410Z,16.40
2023-05-16T16:07:26.397Z,16.40
2023-05-16T16:09:53.172Z,16.40
2023-05-16T16:12:19.860Z,16.50
2023-05-16T16:14:49.515Z,16.60
2023-05-16T16:17:16.668Z,16.60
2023-05-16T16:19:43.610Z,16.70
2023-05-16T16:22:10.411Z,16.70
2023-05-16T16:24:37.143Z,16.80
2023-05-16T16:27:04.068Z,16.80
2023-05-16T16:29:31.010Z,16.90
2023-05-16T16:31:58.831Z,17.00
2023-05-16T16:34:25.790Z,17.10
2023-05-16T16:36:52.597Z,17.30
2023-05-16T16:39:20.051Z,17.40
2023-05-16T16:41:47.403Z,17.50
2023-05-16T16:44:14.284Z,17.60
2023-05-16T16:46:41.584Z,17.70
2023-05-16T16:49:08.488Z,17.80
2023-05-16T16:51:36.043Z,17.80
2023-05-16T16:54:02.827Z,18.00
2023-05-16T16:56:30.198Z,18.10
2023-05-16T16:58:57.187Z,18.20
2023-05-16T17:01:24.313Z,18.40
2023-05-16T17:03:51.317Z,18.50
2023-05-16T17:06:18.049Z,18.60
2023-05-16T17:08:46.431Z,18.80
2023-05-16T17:11:14.948Z,18.80
2023-05-16T17:13:42.064Z,18.90
2023-05-16T17:16:10.642Z,18.90
2023-05-16T17:18:37.407Z,19.00
2023-05-16T17:21:04.367Z,18.90
2023-05-16T17:23:33.554Z,18.90
2023-05-16T17:26:00.388Z,18.90
2023-05-16T17:28:27.123Z,18.90
2023-05-16T17:30:53.945Z,18.80
2023-05-16T17:33:20.646Z,18.70
2023-05-16T17:35:48.196Z,18.60
2023-05-16T17:38:15.158Z,18.60
2023-05-16T17:40:41.890Z,18.60
2023-05-16T17:43:08.680Z,18.50
2023-05-16T17:45:36.659Z,18.50
2023-05-16T17:48:03.493Z,18.50
2023-05-16T17:50:30.356Z,18.50
2023-05-16T17:52:57.418Z,18.50
2023-05-16T17:55:24.624Z,18.50
2023-05-16T17:57:51.400Z,18.40
2023-05-16T18:00:18.649Z,18.40
2023-05-16T18:02:45.448Z,18.40
2023-05-16T18:05:12.246Z,18.30
2023-05-16T18:07:39.171Z,18.30
2023-05-16T18:10:06.351Z,18.30
2023-05-16T18:12:34.594Z,18.20
2023-05-16T18:15:01.312Z,18.20
2023-05-16T18:17:28.380Z,18.20
2023-05-16T18:19:55.180Z,18.20
2023-05-16T18:22:22.219Z,18.10
2023-05-16T18:24:48.894Z,18.10
2023-05-16T18:27:16.147Z,18.10
2023-05-16T18:29:42.865Z,18.10
2023-05-16T18:32:09.830Z,18.00
2023-05-16T18:34:36.617Z,17.90
2023-05-16T18:37:03.290Z,18.00
2023-05-16T18:39:30.050Z,17.90
2023-05-16T18:41:56.828Z,17.90
2023-05-16T18:44:23.519Z,17.80
2023-05-16T18:46:50.245Z,17.70
2023-05-16T18:49:17.088Z,17.70
2023-05-16T18:51:44.342Z,17.60
2023-05-16T18:54:10.972Z,17.60
2023-05-16T18:56:37.694Z,17.50
2023-05-16T18:59:04.301Z,17.50
2023-05-16T19:01:30.933Z,17.50
2023-05-16T19:03:57.826Z,17.50
2023-05-16T19:06:24.684Z,17.50
2023-05-16T19:08:51.427Z,17.50
2023-05-16T19:11:18.626Z,17.50
2023-05-16T19:13:46.272Z,17.40
2023-05-16T19:16:13.395Z,17.30
2023-05-16T19:18:40.360Z,17.20
2023-05-16T19:21:08.646Z,17.10
2023-05-16T19:23:35.571Z,17.00
2023-05-16T19:26:02.549Z,16.90
2023-05-16T19:28:29.408Z,16.80
2023-05-16T19:30:56.258Z,16.70
2023-05-16T19:33:22.964Z,16.70
2023-05-16T19:35:51.581Z,16.70
2023-05-16T19:38:19.799Z,16.60
2023-05-16T19:40:46.871Z,16.50
2023-05-16T19:43:13.623Z,16.50
2023-05-16T19:45:40.645Z,16.40
2023-05-16T19:48:08.143Z,16.40
2023-05-16T19:50:35.515Z,16.20
2023-05-16T19:53:02.605Z,16.20
2023-05-16T19:55:29.925Z,16.10
2023-05-16T19:57:57.578Z,16.00
2023-05-16T20:00:24.777Z,15.90
2023-05-16T20:02:51.692Z,15.80
2023-05-16T20:05:23.231Z,15.70
2023-05-16T20:07:50.763Z,15.60
2023-05-16T20:10:19.205Z,15.50
2023-05-16T20:12:47.133Z,15.40
2023-05-16T20:15:13.891Z,15.40
2023-05-16T20:17:41.283Z,15.30
2023-05-16T20:20:09.158Z,15.20
2023-05-16T20:22:41.250Z,15.20
2023-05-16T20:25:09.531Z,15.10
2023-05-16T20:27:36.379Z,15.10
2023-05-16T20:30:04.224Z,15.00
2023-05-16T20:32:31.018Z,14.90
2023-05-16T20:34:57.908Z,14.80
2023-05-16T20:37:26.801Z,14.70
2023-05-16T20:39:54.445Z,14.60
2023-05-16T20:42:21.914Z,14.50
2023-05-16T20:44:48.935Z,14.50
2023-05-16T20:47:17.041Z,14.50
2023-05-16T20:49:44.218Z,14.40
2023-05-16T20:52:11.322Z,14.40
2023-05-16T20:54:38.080Z,14.40
2023-05-16T20:57:05.243Z,14.30
2023-05-16T20:59:32.365Z,14.30
2023-05-16T21:01:59.327Z,14.20
2023-05-16T21:04:26.254Z,14.10
2023-05-16T21:06:53.172Z,14.10
2023-05-16T21:09:19.991Z,14.00
2023-05-16T21:11:46.732Z,14.00
2023-05-16T21:14:13.609Z,13.90
2023-05-16T21:16:40.326Z,13.80
2023-05-16T21:19:07.198Z,13.80
2023-05-16T21:21:33.898Z,13.70
2023-05-16T21:24:00.865Z,13.70
2023-05-16T21:26:27.796Z,13.60
2023-05-16T21:28:55.765Z,13.60
2023-05-16T21:31:23.042Z,13.50
2023-05-16T21:33:52.818Z,13.50
2023-05-16T21:36:20.217Z,13.40
2023-05-16T21:38:47.269Z,13.40
2023-05-16T21:41:14.504Z,13.40
2023-05-16T21:43:41.210Z,13.30
2023-05-16T21:46:08.026Z,13.30
2023-05-16T21:48:34.969Z,13.30
2023-05-16T21:51:01.952Z,13.20
2023-05-16T21:53:28.724Z,13.20
2023-05-16T21:55:55.600Z,13.10
2023-05-16T21:58:22.421Z,13.10
2023-05-16T22:00:49.666Z,13.10
2023-05-16T22:03:19.142Z,13.30
2023-05-16T22:05:46.839Z,13.40
2023-05-16T22:08:13.637Z,13.60
2023-05-16T22:10:40.412Z,13.70
2023-05-16T22:13:08.278Z,13.90
2023-05-16T22:15:35.100Z,14.00
2023-05-16T22:18:02.098Z,14.10
2023-05-16T22:20:29.761Z,14.10
2023-05-16T22:22:56.749Z,14.20
2023-05-16T22:25:24.541Z,14.10
2023-05-16T22:27:51.346Z,14.10
2023-05-16T22:30:18.517Z,14.10
2023-05-16T22:32:47.107Z,14.10
2023-05-16T22:35:14.169Z,14.10
2023-05-16T22:37:40.881Z,14.10
2023-05-16T22:40:08.474Z,14.10
2023-05-16T22:42:35.188Z,14.20
2023-05-16T22:45:02.035Z,14.20
2023-05-16T22:47:29.034Z,14.20
2023-05-16T22:49:55.897Z,14.10
2023-05-16T22:52:22.711Z,14.10
2023-05-16T22:54:49.615Z,14.20
2023-05-16T22:57:16.501Z,14.20
2023-05-16T22:59:43.221Z,14.10
2023-05-16T23:02:10.013Z,14.00
2023-05-16T23:04:36.818Z,13.90
2023-05-16T23:07:03.571Z,13.80
2023-05-16T23:09:30.438Z,13.70
2023-05-16T23:11:57.214Z,13.60
2023-05-16T23:14:23.987Z,13.50
2023-05-16T23:16:50.670Z,13.40
2023-05-16T23:19:17.529Z,13.30
2023-05-16T23:21:44.829Z,13.20
2023-05-16T23:24:11.514Z,13.10
2023-05-16T23:26:38.205Z,13.10
2023-05-16T23:29:05.419Z,13.00
2023-05-16T23:31:32.252Z,12.90
2023-05-16T23:33:58.983Z,12.90
2023-05-16T23:36:25.832Z,12.90
2023-05-16T23:38:52.511Z,12.90
2023-05-16T23:41:19.316Z,12.90
2023-05-16T23:43:46.010Z,13.00
2023-05-16T23:46:12.668Z,13.00
2023-05-16T23:48:39.978Z,13.10
2023-05-16T23:51:07.656Z,13.10
2023-05-16T23:53:35.319Z,13.10
2023-05-16T23:56:02.259Z,13.10
2023-05-16T23:58:29.060Z,13.00
